createdAt,value
2019-06-01T00:00:17.393Z,24.95
2019-06-01T00:02:55.989Z,27.13
2019-06-01T00:05:25.239Z,20.23
2019-06-01T00:07:57.451Z,23.57
2019-06-01T00:10:29.819Z,26.33
2019-06-01T00:13:03.508Z,23.32
2019-06-01T00:15:35.979Z,20.40
2019-06-01T00:18:08.826Z,20.37
2019-06-01T00:20:44.457Z,19.77
2019-06-01T00:23:17.193Z,20.65
2019-06-01T00:28:21.384Z,23.80
2019-06-01T00:30:54.332Z,17.12
2019-06-01T00:33:26.701Z,16.10
2019-06-01T00:35:59.721Z,18.40
2019-06-01T00:38:31.952Z,16.73
2019-06-01T00:41:04.668Z,17.02
2019-06-01T00:43:36.866Z,20.00
2019-06-01T00:46:09.387Z,15.83
2019-06-01T00:48:43.663Z,14.93
2019-06-01T00:51:16.448Z,12.93
2019-06-01T00:53:49.536Z,16.60
2019-06-01T00:56:22.723Z,10.55
2019-06-01T00:58:55.251Z,10.95
2019-06-01T01:01:27.977Z,11.53
2019-06-01T01:04:00.260Z,13.22
2019-06-01T01:06:33.311Z,13.78
2019-06-01T01:09:07.425Z,12.53
2019-06-01T01:11:40.028Z,14.90
2019-06-01T01:14:12.419Z,14.80
2019-06-01T01:16:45.466Z,19.27
2019-06-01T01:19:17.928Z,13.43
2019-06-01T01:21:52.238Z,12.80
2019-06-01T01:24:24.543Z,15.05
2019-06-01T01:26:57.259Z,16.25
2019-06-01T01:29:29.906Z,13.53
2019-06-01T01:32:02.300Z,14.58
2019-06-01T01:34:34.960Z,17.67
2019-06-01T01:37:07.448Z,17.87
2019-06-01T01:39:39.695Z,15.43
2019-06-01T01:42:12.091Z,19.52
2019-06-01T01:44:44.314Z,7.78
2019-06-01T01:47:17.001Z,16.52
2019-06-01T01:49:52.105Z,26.45
2019-06-01T01:52:24.844Z,18.92
2019-06-01T01:54:57.049Z,16.25
2019-06-01T01:57:29.839Z,17.05
2019-06-01T02:00:02.130Z,15.38
2019-06-01T02:02:36.110Z,16.05
2019-06-01T02:05:10.333Z,12.63
2019-06-01T02:07:43.032Z,14.40
2019-06-01T02:10:16.415Z,16.05
2019-06-01T02:15:20.448Z,12.05
2019-06-01T02:17:53.863Z,11.48
2019-06-01T02:20:26.590Z,12.80
2019-06-01T02:23:00.905Z,11.10
2019-06-01T02:25:33.624Z,16.37
2019-06-01T02:28:06.012Z,18.98
2019-06-01T02:30:38.566Z,13.28
2019-06-01T02:33:10.970Z,11.83
2019-06-01T02:35:43.568Z,15.80
2019-06-01T02:38:17.714Z,12.15
2019-06-01T02:43:22.970Z,13.50
2019-06-01T02:45:56.326Z,17.55
2019-06-01T02:48:29.148Z,17.95
2019-06-01T02:51:02.032Z,17.20
2019-06-01T02:53:37.028Z,14.43
2019-06-01T02:56:09.545Z,16.32
2019-06-01T02:58:42.215Z,15.00
2019-06-01T03:01:35.853Z,14.43
2019-06-01T03:04:11.068Z,17.07
2019-06-01T03:06:45.047Z,19.05
2019-06-01T03:09:17.963Z,21.00
2019-06-01T03:11:51.676Z,12.03
2019-06-01T03:14:26.053Z,16.52
2019-06-01T03:17:01.873Z,12.98
2019-06-01T03:19:36.948Z,18.45
2019-06-01T03:22:11.896Z,20.20
2019-06-01T03:24:47.462Z,18.95
2019-06-01T03:27:22.111Z,14.60
2019-06-01T03:30:03.957Z,19.75
2019-06-01T03:32:37.415Z,19.27
2019-06-01T03:35:10.807Z,16.80
2019-06-01T03:40:23.424Z,18.70
2019-06-01T03:42:49.540Z,18.35
2019-06-01T03:47:53.613Z,23.52
2019-06-01T03:50:26.505Z,26.25
2019-06-01T03:52:59.256Z,25.12
2019-06-01T03:55:31.557Z,21.97
2019-06-01T03:58:05.168Z,21.73
2019-06-01T04:00:38.201Z,23.92
2019-06-01T04:03:11.160Z,26.82
2019-06-01T04:05:44.124Z,30.02
2019-06-01T04:08:16.922Z,30.50
2019-06-01T04:10:49.266Z,29.07
2019-06-01T04:13:22.007Z,22.67
2019-06-01T04:15:54.500Z,23.40
2019-06-01T04:18:26.916Z,18.42
2019-06-01T04:20:59.389Z,16.93
2019-06-01T04:23:35.837Z,17.67
2019-06-01T04:26:08.105Z,39.42
2019-06-01T04:28:40.611Z,26.23
2019-06-01T04:31:13.023Z,21.55
2019-06-01T04:33:45.776Z,20.23
2019-06-01T04:36:18.971Z,19.92
2019-06-01T04:38:51.775Z,19.02
2019-06-01T04:41:24.303Z,21.68
2019-06-01T04:43:57.839Z,25.80
2019-06-01T04:46:30.717Z,25.30
2019-06-01T04:49:04.381Z,19.65
2019-06-01T04:51:37.227Z,20.30
2019-06-01T04:54:11.572Z,16.35
2019-06-01T04:56:45.795Z,15.40
2019-06-01T04:59:18.339Z,25.15
2019-06-01T05:01:51.176Z,24.23
2019-06-01T05:04:24.179Z,9.93
2019-06-01T05:09:30.760Z,25.20
2019-06-01T05:12:02.972Z,31.65
2019-06-01T05:14:38.237Z,26.65
2019-06-01T05:17:10.436Z,20.43
2019-06-01T05:19:42.776Z,25.88
2019-06-01T05:22:15.070Z,26.23
2019-06-01T05:24:47.912Z,28.00
2019-06-01T05:27:20.638Z,18.82
2019-06-01T05:29:53.292Z,12.47
2019-06-01T05:32:25.660Z,16.37
2019-06-01T05:34:58.882Z,25.75
2019-06-01T05:37:31.345Z,29.77
2019-06-01T05:40:04.164Z,30.62
2019-06-01T05:42:36.894Z,24.57
2019-06-01T05:45:11.265Z,15.68
2019-06-01T05:47:43.832Z,22.85
2019-06-01T05:50:16.413Z,22.82
2019-06-01T05:52:48.865Z,14.28
2019-06-01T05:55:22.982Z,13.70
2019-06-01T05:57:55.571Z,13.90
2019-06-01T06:00:42.865Z,24.47
2019-06-01T06:03:18.136Z,16.30
2019-06-01T06:05:49.213Z,20.00
2019-06-01T06:08:22.601Z,22.77
2019-06-01T06:10:55.306Z,20.48
2019-06-01T06:13:27.693Z,21.33
2019-06-01T06:16:00.501Z,24.32
2019-06-01T06:18:32.753Z,17.42
2019-06-01T06:21:05.380Z,15.45
2019-06-01T06:23:37.885Z,10.68
2019-06-01T06:26:11.050Z,15.58
2019-06-01T06:28:43.294Z,6.40
2019-06-01T06:31:17.010Z,10.25
2019-06-01T06:33:56.768Z,7.62
2019-06-01T06:36:23.827Z,10.00
2019-06-01T06:38:56.123Z,12.70
2019-06-01T06:41:29.032Z,10.43
2019-06-01T06:44:01.802Z,14.40
2019-06-01T06:46:34.535Z,16.85
2019-06-01T06:49:10.045Z,14.75
2019-06-01T06:51:42.626Z,12.43
2019-06-01T06:54:16.104Z,14.13
2019-06-01T06:56:48.741Z,10.78
2019-06-01T06:59:22.435Z,11.75
2019-06-01T07:01:55.117Z,13.32
2019-06-01T07:04:27.964Z,9.40
2019-06-01T07:07:00.638Z,8.85
2019-06-01T07:09:32.876Z,10.23
2019-06-01T07:12:05.331Z,8.30
2019-06-01T07:14:37.556Z,8.88
2019-06-01T07:17:10.922Z,13.25
2019-06-01T07:22:16.978Z,9.78
2019-06-01T07:24:48.647Z,6.75
2019-06-01T07:29:54.194Z,7.37
2019-06-01T07:32:26.930Z,9.65
2019-06-01T07:35:01.298Z,7.33
2019-06-01T07:37:33.058Z,6.03
2019-06-01T07:40:06.412Z,28.07
2019-06-01T07:42:39.274Z,10.98
2019-06-01T07:45:11.667Z,17.92
2019-06-01T07:47:44.349Z,9.25
2019-06-01T07:50:19.782Z,10.13
2019-06-01T07:52:56.232Z,6.97
2019-06-01T07:55:29.620Z,7.08
2019-06-01T07:58:02.997Z,8.03
2019-06-01T08:00:36.262Z,5.75
2019-06-01T08:03:09.026Z,4.65
2019-06-01T08:05:41.264Z,10.50
2019-06-01T08:08:14.060Z,14.55
2019-06-01T08:10:47.566Z,9.43
2019-06-01T08:13:21.366Z,6.15
2019-06-01T08:15:53.748Z,8.35
2019-06-01T08:18:26.465Z,7.80
2019-06-01T08:20:58.792Z,6.00
2019-06-01T08:23:32.516Z,5.37
2019-06-01T08:26:05.132Z,4.75
2019-06-01T08:28:38.251Z,4.80
2019-06-01T08:31:11.171Z,5.95
2019-06-01T08:33:44.947Z,6.35
2019-06-01T08:36:17.206Z,3.52
2019-06-01T08:38:50.146Z,5.05
2019-06-01T08:41:23.367Z,4.58
2019-06-01T08:43:56.295Z,4.78
2019-06-01T08:46:29.586Z,4.60
2019-06-01T08:49:02.430Z,4.75
2019-06-01T08:51:34.665Z,5.35
2019-06-01T08:54:07.078Z,6.12
2019-06-01T08:56:39.524Z,4.67
2019-06-01T08:59:11.897Z,3.60
2019-06-01T09:01:44.101Z,4.95
2019-06-01T09:04:17.307Z,7.55
2019-06-01T09:06:49.535Z,3.08
2019-06-01T09:09:22.139Z,3.55
2019-06-01T09:11:54.923Z,6.72
2019-06-01T09:17:00.041Z,4.40
2019-06-01T09:19:33.577Z,5.60
2019-06-01T09:22:06.352Z,10.03
2019-06-01T09:24:39.260Z,7.75
2019-06-01T09:27:11.518Z,8.28
2019-06-01T09:29:44.849Z,9.43
2019-06-01T09:32:17.222Z,11.75
2019-06-01T09:34:50.331Z,7.92
2019-06-01T09:37:22.744Z,10.03
2019-06-01T09:39:55.896Z,7.62
2019-06-01T09:42:30.679Z,5.28
2019-06-01T09:45:03.881Z,8.28
2019-06-01T09:47:36.157Z,8.75
2019-06-01T09:50:08.995Z,6.28
2019-06-01T09:52:41.371Z,9.15
2019-06-01T09:55:14.542Z,9.73
2019-06-01T09:57:47.035Z,8.45
2019-06-01T10:00:21.068Z,6.72
2019-06-01T10:02:54.041Z,6.75
2019-06-01T10:05:28.321Z,8.90
2019-06-01T10:08:00.858Z,7.65
2019-06-01T10:10:33.927Z,6.70
2019-06-01T10:13:07.814Z,6.10
2019-06-01T10:15:40.991Z,6.08
2019-06-01T10:18:13.533Z,6.97
2019-06-01T10:20:46.350Z,4.83
2019-06-01T10:23:18.678Z,5.72
2019-06-01T10:25:51.944Z,4.47
2019-06-01T10:28:25.021Z,9.53
2019-06-01T10:30:57.688Z,8.88
2019-06-01T10:33:30.665Z,10.72
2019-06-01T10:36:19.291Z,5.10
2019-06-01T10:38:37.565Z,5.15
2019-06-01T10:41:10.063Z,5.47
2019-06-01T10:43:42.649Z,4.75
2019-06-01T10:46:15.483Z,2.52
2019-06-01T10:51:22.676Z,7.42
2019-06-01T10:53:55.467Z,8.23
2019-06-01T10:56:28.815Z,6.47
2019-06-01T10:59:02.163Z,7.15
2019-06-01T11:04:08.912Z,4.95
2019-06-01T11:06:48.161Z,1.77
2019-06-01T11:09:17.727Z,3.52
2019-06-01T11:11:50.566Z,3.27
2019-06-01T11:14:23.130Z,3.95
2019-06-01T11:16:56.726Z,3.87
2019-06-01T11:19:29.225Z,3.65
2019-06-01T11:22:01.836Z,5.20
2019-06-01T11:24:35.326Z,4.25
2019-06-01T11:27:09.268Z,3.60
2019-06-01T11:29:49.138Z,4.72
2019-06-01T11:32:16.076Z,6.58
2019-06-01T11:34:48.575Z,4.65
2019-06-01T11:37:21.437Z,5.87
2019-06-01T11:39:58.129Z,3.65
2019-06-01T11:42:31.263Z,4.30
2019-06-01T11:45:03.576Z,6.22
2019-06-01T11:47:36.816Z,5.30
2019-06-01T11:50:09.942Z,3.70
2019-06-01T11:52:43.246Z,4.65
2019-06-01T11:57:47.719Z,2.02
2019-06-01T12:00:21.944Z,2.67
2019-06-01T12:02:54.539Z,5.85
2019-06-01T12:05:27.183Z,5.80
2019-06-01T12:08:01.068Z,5.17
2019-06-01T12:10:33.460Z,5.33
2019-06-01T12:13:07.495Z,2.12
2019-06-01T12:15:40.307Z,9.48
2019-06-01T12:18:12.920Z,9.38
2019-06-01T12:20:45.410Z,8.53
2019-06-01T12:23:18.544Z,5.62
2019-06-01T12:25:51.202Z,10.18
2019-06-01T12:28:23.955Z,7.55
2019-06-01T12:30:56.534Z,8.65
2019-06-01T12:33:29.251Z,5.33
2019-06-01T12:36:01.710Z,4.47
2019-06-01T12:38:37.853Z,14.00
2019-06-01T12:41:16.442Z,5.28
2019-06-01T12:43:51.860Z,11.73
2019-06-01T12:46:24.702Z,5.53
2019-06-01T12:48:58.058Z,10.80
2019-06-01T12:51:30.883Z,13.22
2019-06-01T12:56:35.529Z,11.22
2019-06-01T12:59:08.979Z,15.18
2019-06-01T13:01:43.093Z,13.88
2019-06-01T13:04:16.401Z,11.55
2019-06-01T13:06:51.958Z,14.68
2019-06-01T13:09:23.376Z,10.23
2019-06-01T13:14:28.007Z,11.63
2019-06-01T13:19:33.654Z,7.30
2019-06-01T13:22:06.362Z,13.78
2019-06-01T13:24:38.800Z,9.40
2019-06-01T13:27:11.650Z,14.70
2019-06-01T13:29:44.430Z,11.12
2019-06-01T13:32:18.419Z,10.75
2019-06-01T13:34:51.386Z,7.22
2019-06-01T13:37:24.347Z,14.07
2019-06-01T13:39:58.283Z,11.48
2019-06-01T13:42:31.238Z,6.40
2019-06-01T13:45:03.829Z,8.48
2019-06-01T13:47:36.926Z,4.03
2019-06-01T13:50:10.876Z,13.30
2019-06-01T13:52:43.901Z,8.38
2019-06-01T13:55:17.222Z,6.92
2019-06-01T13:57:52.558Z,7.50
2019-06-01T14:00:30.339Z,7.60
2019-06-01T14:03:00.035Z,11.97
2019-06-01T14:05:32.997Z,9.98
2019-06-01T14:10:37.308Z,7.80
2019-06-01T14:13:10.499Z,7.37
2019-06-01T14:15:42.867Z,6.70
2019-06-01T14:18:16.044Z,5.72
2019-06-01T14:20:49.584Z,8.25
2019-06-01T14:23:22.534Z,7.50
2019-06-01T14:25:54.865Z,8.70
2019-06-01T14:28:27.989Z,5.33
2019-06-01T14:31:00.222Z,9.65
2019-06-01T14:33:34.800Z,7.50
2019-06-01T14:36:07.390Z,9.15
2019-06-01T14:38:47.106Z,11.25
2019-06-01T14:41:14.336Z,5.22
2019-06-01T14:46:53.619Z,14.75
2019-06-01T14:49:15.116Z,8.30
2019-06-01T14:51:47.800Z,8.30
2019-06-01T14:54:20.524Z,6.45
2019-06-01T14:56:53.778Z,9.33
2019-06-01T14:59:26.389Z,8.25
2019-06-01T15:01:58.782Z,8.10
2019-06-01T15:04:31.777Z,6.87
2019-06-01T15:07:04.256Z,10.28
2019-06-01T15:09:37.194Z,8.45
2019-06-01T15:12:09.424Z,11.22
2019-06-01T15:14:42.300Z,7.67
2019-06-01T15:17:15.167Z,5.30
2019-06-01T15:19:50.011Z,8.75
2019-06-01T15:22:22.337Z,8.18
2019-06-01T15:24:56.154Z,9.28
2019-06-01T15:27:29.418Z,5.35
2019-06-01T15:30:03.223Z,7.33
2019-06-01T15:32:37.491Z,5.95
2019-06-01T15:35:10.975Z,3.95
2019-06-01T15:37:43.781Z,17.40
2019-06-01T15:40:17.756Z,9.35
2019-06-01T15:42:51.915Z,15.53
2019-06-01T15:45:24.482Z,12.78
2019-06-01T15:47:57.771Z,8.20
2019-06-01T15:50:30.856Z,8.80
2019-06-01T15:53:03.477Z,7.10
2019-06-01T15:55:36.781Z,19.42
2019-06-01T15:58:09.294Z,11.38
2019-06-01T16:00:42.108Z,15.08
2019-06-01T16:03:14.969Z,12.37
2019-06-01T16:05:48.209Z,8.05
2019-06-01T16:08:20.692Z,13.18
2019-06-01T16:10:53.697Z,14.03
2019-06-01T16:13:26.436Z,3.17
2019-06-01T16:16:01.914Z,11.60
2019-06-01T16:18:33.340Z,14.43
2019-06-01T16:21:06.086Z,8.93
2019-06-01T16:23:49.310Z,7.28
2019-06-01T16:26:16.331Z,10.98
2019-06-01T16:28:46.867Z,13.95
2019-06-01T16:31:19.786Z,15.28
2019-06-01T16:33:52.103Z,11.53
2019-06-01T16:36:25.263Z,15.43
2019-06-01T16:39:01.873Z,11.12
2019-06-01T16:41:32.214Z,16.10
2019-06-01T16:44:05.864Z,7.15
2019-06-01T16:46:39.979Z,9.08
2019-06-01T16:49:12.484Z,11.63
2019-06-01T16:51:52.840Z,5.35
2019-06-01T16:54:25.617Z,12.90
2019-06-01T16:56:58.540Z,9.08
2019-06-01T17:02:03.362Z,9.33
2019-06-01T17:04:36.037Z,6.67
2019-06-01T17:07:09.118Z,6.80
2019-06-01T17:09:42.591Z,13.45
2019-06-01T17:12:15.365Z,7.03
2019-06-01T17:14:47.695Z,12.75
2019-06-01T17:17:22.438Z,10.38
2019-06-01T17:19:54.971Z,5.22
2019-06-01T17:22:27.852Z,11.48
2019-06-01T17:25:01.760Z,11.40
2019-06-01T17:27:34.729Z,9.35
2019-06-01T17:30:11.521Z,14.83
2019-06-01T17:32:41.603Z,11.12
2019-06-01T17:35:14.431Z,11.35
2019-06-01T17:40:35.638Z,8.85
2019-06-01T17:42:53.444Z,3.47
2019-06-01T17:45:25.970Z,8.30
2019-06-01T17:48:14.022Z,7.58
2019-06-01T17:50:32.978Z,9.53
2019-06-01T17:53:06.620Z,17.00
2019-06-01T17:55:40.526Z,11.25
2019-06-01T17:58:13.438Z,12.20
2019-06-01T18:00:46.200Z,16.27
2019-06-01T18:03:19.159Z,11.45
2019-06-01T18:08:23.044Z,17.75
2019-06-01T18:10:55.794Z,13.98
2019-06-01T18:13:28.474Z,17.55
2019-06-01T18:16:02.985Z,13.03
2019-06-01T18:18:35.423Z,13.62
2019-06-01T18:21:10.937Z,11.35
2019-06-01T18:23:43.587Z,15.50
2019-06-01T18:26:15.988Z,17.20
2019-06-01T18:28:48.793Z,10.63
2019-06-01T18:31:41.617Z,19.40
2019-06-01T18:34:14.503Z,17.12
2019-06-01T18:36:47.918Z,7.05
2019-06-01T18:39:20.894Z,10.43
2019-06-01T18:42:14.582Z,15.78
2019-06-01T18:44:49.147Z,16.27
2019-06-01T18:47:31.900Z,9.93
2019-06-01T18:49:57.004Z,13.85
2019-06-01T18:55:01.051Z,11.75
2019-06-01T18:57:34.398Z,7.60
2019-06-01T19:02:40.904Z,11.15
2019-06-01T19:05:15.445Z,14.73
2019-06-01T19:07:47.988Z,17.12
2019-06-01T19:10:21.272Z,15.50
2019-06-01T19:12:53.877Z,7.97
2019-06-01T19:15:29.002Z,10.03
2019-06-01T19:18:00.962Z,19.82
2019-06-01T19:20:33.658Z,14.47
2019-06-01T19:23:06.614Z,9.38
2019-06-01T19:28:10.990Z,3.37
2019-06-01T19:30:44.630Z,10.98
2019-06-01T19:33:19.310Z,15.50
2019-06-01T19:35:52.873Z,14.10
2019-06-01T19:38:30.220Z,9.95
2019-06-01T19:41:02.770Z,13.18
2019-06-01T19:43:35.241Z,17.40
2019-06-01T19:46:07.921Z,17.50
2019-06-01T19:48:40.751Z,12.37
2019-06-01T19:53:44.824Z,13.68
2019-06-01T19:56:20.064Z,17.20
2019-06-01T19:58:51.639Z,8.78
2019-06-01T20:01:25.349Z,10.70
2019-06-01T20:03:57.735Z,4.97
2019-06-01T20:06:30.369Z,10.10
2019-06-01T20:09:02.756Z,11.25
2019-06-01T20:11:36.591Z,9.20
2019-06-01T20:14:10.186Z,9.38
2019-06-01T20:16:42.672Z,14.95
2019-06-01T20:19:15.614Z,12.05
2019-06-01T20:22:08.679Z,17.35
2019-06-01T20:24:41.807Z,13.40
2019-06-01T20:27:15.313Z,12.23
2019-06-01T20:29:47.917Z,15.08
2019-06-01T20:32:22.095Z,15.95
2019-06-01T20:34:55.392Z,14.30
2019-06-01T20:37:28.465Z,13.55
2019-06-01T20:40:01.373Z,15.63
2019-06-01T20:42:34.070Z,19.98
2019-06-01T20:45:09.132Z,19.45
2019-06-01T20:47:41.906Z,13.18
2019-06-01T20:50:14.948Z,14.68
2019-06-01T20:52:47.423Z,13.98
2019-06-01T20:55:40.573Z,10.78
2019-06-01T20:58:22.890Z,17.00
2019-06-01T21:00:55.416Z,18.07
2019-06-01T21:03:28.452Z,19.80
2019-06-01T21:06:01.143Z,24.30
2019-06-01T21:08:33.794Z,15.08
2019-06-01T21:11:06.316Z,18.70
2019-06-01T21:13:39.715Z,25.25
2019-06-01T21:16:12.525Z,17.52
2019-06-01T21:18:45.460Z,23.32
2019-06-01T21:21:18.499Z,8.05
2019-06-01T21:23:51.299Z,19.85
2019-06-01T21:26:25.092Z,19.90
2019-06-01T21:28:57.535Z,15.40
2019-06-01T21:31:30.075Z,14.83
2019-06-01T21:34:03.892Z,14.87
2019-06-01T21:36:36.698Z,18.00
2019-06-01T21:39:09.803Z,11.18
2019-06-01T21:41:42.916Z,21.57
2019-06-01T21:44:15.457Z,13.15
2019-06-01T21:46:49.044Z,18.48
2019-06-01T21:49:22.138Z,18.62
2019-06-01T21:51:54.822Z,16.65
2019-06-01T21:54:27.097Z,14.15
2019-06-01T21:56:59.778Z,15.38
2019-06-01T21:59:32.355Z,17.52
2019-06-01T22:02:05.016Z,9.28
2019-06-01T22:07:10.546Z,13.18
2019-06-01T22:09:43.534Z,12.28
2019-06-01T22:12:17.213Z,16.95
2019-06-01T22:14:49.968Z,17.40
2019-06-01T22:19:54.629Z,21.70
2019-06-01T22:22:28.118Z,14.93
2019-06-01T22:25:00.995Z,17.60
2019-06-01T22:27:34.549Z,20.65
2019-06-01T22:30:08.204Z,19.62
2019-06-01T22:32:40.892Z,11.38
2019-06-01T22:35:14.076Z,15.72
2019-06-01T22:37:47.675Z,24.32
2019-06-01T22:40:20.869Z,21.25
2019-06-01T22:42:53.909Z,19.90
2019-06-01T22:45:27.052Z,21.73
2019-06-01T22:50:31.202Z,17.10
2019-06-01T22:53:03.634Z,15.83
2019-06-01T22:55:36.058Z,19.17
2019-06-01T22:58:08.606Z,17.05
2019-06-01T23:00:41.860Z,26.15
2019-06-01T23:03:15.161Z,6.87
2019-06-01T23:05:47.812Z,15.95
2019-06-01T23:08:21.269Z,17.57
2019-06-01T23:13:26.194Z,14.30
2019-06-01T23:15:59.116Z,18.65
2019-06-01T23:18:31.993Z,32.63
2019-06-01T23:21:04.987Z,30.02
2019-06-01T23:23:37.794Z,29.95
2019-06-01T23:26:11.230Z,17.65
2019-06-01T23:28:44.498Z,28.20
2019-06-01T23:31:17.058Z,26.12
2019-06-01T23:33:50.016Z,11.10
2019-06-01T23:36:22.467Z,30.23
2019-06-01T23:38:55.416Z,19.95
2019-06-01T23:41:28.747Z,29.05
2019-06-01T23:44:11.200Z,21.77
2019-06-01T23:46:34.798Z,30.05
2019-06-01T23:49:07.476Z,28.35
2019-06-01T23:51:40.344Z,27.82
2019-06-01T23:54:13.764Z,24.75
2019-06-01T23:59:19.135Z,33.15
